Elko, Canada
Current Conditions -  °F | °C
As of 12:22 PM on Friday 28 Nov 2014 (Local Time) from CYXC Reporting Station
Clear Clear  
Wind Chill:   Ceiling: Unl
Heat Index:   Visibility: 15mi
Dew Point:   Wind: 13mph
Humidity: 76%   Direction: 160°SSE
Pressure: 29.28"   Gusts: NA
Location:  49.3°N, 115.12°W
Report Text: CYXC 281922Z 16011KT 15SM 08/04 A2928 RMK CVCTV CLD EMBD VIS HIER N SLP924 DENSITY ALT 3600FT
Loading
Personal Weather Stations






























Interactive Weather Map New forecast layout! Learn more

10-Day Weather Forecast

Advertisements
Track Severe Weather on mobile